sensor_id;sensor_type;location;lat;lon;timestamp;pressure;altitude;pressure_sealevel;temperature;humidity
60371;BME280;48550;40.588;49.684;2022-08-21T00:02:15;101509.13;;;23.90;100.00
60371;BME280;48550;40.588;49.684;2022-08-21T00:04:41;101515.22;;;23.87;100.00
60371;BME280;48550;40.588;49.684;2022-08-21T00:07:07;101511.34;;;23.88;100.00
60371;BME280;48550;40.588;49.684;2022-08-21T00:09:33;101508.72;;;23.83;100.00
60371;BME280;48550;40.588;49.684;2022-08-21T00:11:59;101510.34;;;23.84;100.00
60371;BME280;48550;40.588;49.684;2022-08-21T00:14:24;101507.50;;;23.89;100.00
60371;BME280;48550;40.588;49.684;2022-08-21T00:16:50;101506.25;;;23.81;100.00
60371;BME280;48550;40.588;49.684;2022-08-21T00:19:16;101514.84;;;23.74;100.00
60371;BME280;48550;40.588;49.684;2022-08-21T00:21:42;101514.94;;;23.69;100.00
60371;BME280;48550;40.588;49.684;2022-08-21T00:24:08;101512.81;;;23.66;100.00
60371;BME280;48550;40.588;49.684;2022-08-21T00:26:34;101509.47;;;23.69;100.00
60371;BME280;48550;40.588;49.684;2022-08-21T00:29:00;101518.00;;;23.68;100.00
60371;BME280;48550;40.588;49.684;2022-08-21T00:31:25;101512.28;;;23.64;100.00
60371;BME280;48550;40.588;49.684;2022-08-21T00:33:51;101513.19;;;23.60;100.00
60371;BME280;48550;40.588;49.684;2022-08-21T00:36:17;101514.00;;;23.60;100.00
60371;BME280;48550;40.588;49.684;2022-08-21T00:38:42;101515.72;;;23.56;100.00
60371;BME280;48550;40.588;49.684;2022-08-21T00:41:09;101508.63;;;23.55;100.00
60371;BME280;48550;40.588;49.684;2022-08-21T00:43:37;101508.16;;;23.48;100.00
60371;BME280;48550;40.588;49.684;2022-08-21T00:46:04;101518.00;;;23.49;100.00
60371;BME280;48550;40.588;49.684;2022-08-21T00:48:30;101513.28;;;23.55;100.00
60371;BME280;48550;40.588;49.684;2022-08-21T00:51:14;101518.47;;;23.56;100.00
60371;BME280;48550;40.588;49.684;2022-08-21T00:53:43;101514.91;;;23.56;100.00
60371;BME280;48550;40.588;49.684;2022-08-21T00:56:11;101511.28;;;23.60;100.00
60371;BME280;48550;40.588;49.684;2022-08-21T00:58:40;101510.56;;;23.55;100.00
60371;BME280;48550;40.588;49.684;2022-08-21T01:01:07;101515.50;;;23.53;100.00
60371;BME280;48550;40.588;49.684;2022-08-21T01:03:34;101511.22;;;23.46;100.00
60371;BME280;48550;40.588;49.684;2022-08-21T01:06:00;101506.31;;;23.43;100.00
60371;BME280;48550;40.588;49.684;2022-08-21T01:08:27;101511.00;;;23.43;100.00
60371;BME280;48550;40.588;49.684;2022-08-21T01:10:55;101512.19;;;23.37;100.00
60371;BME280;48550;40.588;49.684;2022-08-21T01:13:23;101509.28;;;23.47;100.00
60371;BME280;48550;40.588;49.684;2022-08-21T01:15:51;101510.19;;;23.42;100.00
60371;BME280;48550;40.588;49.684;2022-08-21T01:18:19;101513.53;;;23.39;100.00
60371;BME280;48550;40.588;49.684;2022-08-21T01:21:22;101513.81;;;23.38;100.00
60371;BME280;48550;40.588;49.684;2022-08-21T01:23:51;101509.31;;;23.28;100.00
60371;BME280;48550;40.588;49.684;2022-08-21T01:26:28;101506.38;;;23.25;100.00
60371;BME280;48550;40.588;49.684;2022-08-21T01:29:20;101507.47;;;23.24;100.00
60371;BME280;48550;40.588;49.684;2022-08-21T01:31:49;101508.06;;;23.21;100.00
60371;BME280;48550;40.588;49.684;2022-08-21T01:34:16;101504.22;;;23.22;100.00
60371;BME280;48550;40.588;49.684;2022-08-21T01:36:44;101513.56;;;23.21;100.00
60371;BME280;48550;40.588;49.684;2022-08-21T01:39:10;101519.84;;;23.21;100.00
60371;BME280;48550;40.588;49.684;2022-08-21T01:41:36;101518.44;;;23.24;100.00
60371;BME280;48550;40.588;49.684;2022-08-21T01:44:02;101516.81;;;23.23;100.00
60371;BME280;48550;40.588;49.684;2022-08-21T01:46:28;101522.50;;;23.26;100.00
60371;BME280;48550;40.588;49.684;2022-08-21T01:48:54;101518.44;;;23.24;100.00
60371;BME280;48550;40.588;49.684;2022-08-21T01:51:20;101527.53;;;23.19;100.00
60371;BME280;48550;40.588;49.684;2022-08-21T01:53:46;101523.63;;;23.25;100.00
60371;BME280;48550;40.588;49.684;2022-08-21T01:56:15;101529.31;;;23.29;100.00
60371;BME280;48550;40.588;49.684;2022-08-21T01:58:43;101529.53;;;23.32;100.00
60371;BME280;48550;40.588;49.684;2022-08-21T02:01:09;101536.16;;;23.45;100.00
60371;BME280;48550;40.588;49.684;2022-08-21T02:03:36;101535.66;;;23.43;100.00
60371;BME280;48550;40.588;49.684;2022-08-21T02:06:06;101542.47;;;23.45;100.00
60371;BME280;48550;40.588;49.684;2022-08-21T02:08:32;101533.44;;;23.45;100.00
60371;BME280;48550;40.588;49.684;2022-08-21T02:10:59;101547.34;;;23.49;100.00
60371;BME280;48550;40.588;49.684;2022-08-21T02:13:25;101542.31;;;23.56;100.00
60371;BME280;48550;40.588;49.684;2022-08-21T02:15:51;101545.56;;;23.58;100.00
60371;BME280;48550;40.588;49.684;2022-08-21T02:18:17;101551.78;;;23.63;100.00
60371;BME280;48550;40.588;49.684;2022-08-21T02:20:46;101556.56;;;23.71;100.00
60371;BME280;48550;40.588;49.684;2022-08-21T02:23:12;101555.59;;;23.81;100.00
60371;BME280;48550;40.588;49.684;2022-08-21T02:25:39;101558.28;;;24.00;100.00
60371;BME280;48550;40.588;49.684;2022-08-21T02:28:08;101558.28;;;24.00;100.00
60371;BME280;48550;40.588;49.684;2022-08-21T02:30:37;101562.13;;;23.99;100.00
60371;BME280;48550;40.588;49.684;2022-08-21T02:33:04;101564.88;;;23.99;100.00
60371;BME280;48550;40.588;49.684;2022-08-21T02:35:31;101568.66;;;24.03;100.00
60371;BME280;48550;40.588;49.684;2022-08-21T02:37:59;101567.75;;;24.07;100.00
60371;BME280;48550;40.588;49.684;2022-08-21T02:40:35;101567.03;;;24.16;100.00
60371;BME280;48550;40.588;49.684;2022-08-21T02:43:03;101571.75;;;24.29;100.00
60371;BME280;48550;40.588;49.684;2022-08-21T02:45:29;101571.56;;;24.53;100.00
60371;BME280;48550;40.588;49.684;2022-08-21T02:48:00;101575.59;;;24.83;100.00
60371;BME280;48550;40.588;49.684;2022-08-21T02:50:38;101565.94;;;24.99;100.00
60371;BME280;48550;40.588;49.684;2022-08-21T02:53:05;101571.56;;;25.30;100.00
60371;BME280;48550;40.588;49.684;2022-08-21T02:55:32;101568.81;;;25.30;100.00
60371;BME280;48550;40.588;49.684;2022-08-21T02:57:59;101577.56;;;25.32;100.00
60371;BME280;48550;40.588;49.684;2022-08-21T03:00:27;101577.06;;;25.52;100.00
60371;BME280;48550;40.588;49.684;2022-08-21T03:02:53;101582.81;;;26.09;97.71
60371;BME280;48550;40.588;49.684;2022-08-21T03:05:20;101576.03;;;26.55;92.23
60371;BME280;48550;40.588;49.684;2022-08-21T03:07:47;101579.19;;;26.79;88.91
60371;BME280;48550;40.588;49.684;2022-08-21T03:10:14;101578.78;;;27.03;86.25
60371;BME280;48550;40.588;49.684;2022-08-21T03:12:40;101580.38;;;27.47;83.18
60371;BME280;48550;40.588;49.684;2022-08-21T03:15:08;101581.16;;;26.96;84.02
60371;BME280;48550;40.588;49.684;2022-08-21T03:17:35;101578.28;;;27.36;79.60
60371;BME280;48550;40.588;49.684;2022-08-21T03:20:01;101584.28;;;27.46;79.94
60371;BME280;48550;40.588;49.684;2022-08-21T03:22:28;101583.94;;;27.91;74.25
60371;BME280;48550;40.588;49.684;2022-08-21T03:24:54;101584.19;;;28.15;72.20
60371;BME280;48550;40.588;49.684;2022-08-21T03:27:20;101584.75;;;27.92;74.29
60371;BME280;48550;40.588;49.684;2022-08-21T03:29:46;101583.06;;;28.08;73.94
60371;BME280;48550;40.588;49.684;2022-08-21T03:32:11;101582.25;;;28.07;74.56
60371;BME280;48550;40.588;49.684;2022-08-21T03:34:38;101582.25;;;28.54;68.70
60371;BME280;48550;40.588;49.684;2022-08-21T03:37:06;101577.56;;;27.99;72.60
60371;BME280;48550;40.588;49.684;2022-08-21T03:39:32;101572.78;;;27.18;77.09
60371;BME280;48550;40.588;49.684;2022-08-21T03:41:58;101574.50;;;26.88;80.47
60371;BME280;48550;40.588;49.684;2022-08-21T03:44:25;101570.63;;;26.81;79.60
60371;BME280;48550;40.588;49.684;2022-08-21T03:46:54;101559.56;;;26.72;80.66
60371;BME280;48550;40.588;49.684;2022-08-21T03:49:20;101563.22;;;27.16;79.10
60371;BME280;48550;40.588;49.684;2022-08-21T03:51:46;101573.75;;;27.05;79.28
60371;BME280;48550;40.588;49.684;2022-08-21T03:54:12;101568.91;;;27.11;77.54
60371;BME280;48550;40.588;49.684;2022-08-21T03:56:38;101577.44;;;26.83;80.28
60371;BME280;48550;40.588;49.684;2022-08-21T03:59:05;101569.97;;;26.92;78.44
60371;BME280;48550;40.588;49.684;2022-08-21T04:01:31;101576.94;;;26.90;78.21
60371;BME280;48550;40.588;49.684;2022-08-21T04:03:57;101570.88;;;26.62;81.84
60371;BME280;48550;40.588;49.684;2022-08-21T04:06:22;101569.88;;;27.06;77.88
60371;BME280;48550;40.588;49.684;2022-08-21T04:08:48;101572.00;;;26.61;82.14
60371;BME280;48550;40.588;49.684;2022-08-21T04:11:14;101575.09;;;26.68;81.25
60371;BME280;48550;40.588;49.684;2022-08-21T04:13:40;101568.38;;;26.91;81.60
60371;BME280;48550;40.588;49.684;2022-08-21T04:16:07;101574.69;;;26.83;80.13
60371;BME280;48550;40.588;49.684;2022-08-21T04:18:33;101575.81;;;26.91;79.72
60371;BME280;48550;40.588;49.684;2022-08-21T04:20:59;101576.88;;;26.73;81.48
60371;BME280;48550;40.588;49.684;2022-08-21T04:23:27;101579.22;;;26.88;80.58
60371;BME280;48550;40.588;49.684;2022-08-21T04:25:54;101576.13;;;26.89;81.34
60371;BME280;48550;40.588;49.684;2022-08-21T04:28:23;101586.03;;;26.90;82.22
60371;BME280;48550;40.588;49.684;2022-08-21T04:30:50;101586.06;;;27.08;80.82
60371;BME280;48550;40.588;49.684;2022-08-21T04:33:17;101576.28;;;26.84;82.67
60371;BME280;48550;40.588;49.684;2022-08-21T04:35:43;101592.22;;;27.05;82.90
60371;BME280;48550;40.588;49.684;2022-08-21T04:38:09;101585.25;;;27.33;79.71
60371;BME280;48550;40.588;49.684;2022-08-21T04:40:35;101588.13;;;26.94;83.62
60371;BME280;48550;40.588;49.684;2022-08-21T04:43:04;101590.78;;;26.99;82.95
60371;BME280;48550;40.588;49.684;2022-08-21T04:45:33;101590.56;;;26.95;82.78
60371;BME280;48550;40.588;49.684;2022-08-21T04:48:01;101600.75;;;26.77;84.84
60371;BME280;48550;40.588;49.684;2022-08-21T04:50:52;101590.59;;;27.04;79.99
60371;BME280;48550;40.588;49.684;2022-08-21T04:53:44;101597.25;;;27.37;77.47
60371;BME280;48550;40.588;49.684;2022-08-21T04:56:22;101596.78;;;27.78;77.28
60371;BME280;48550;40.588;49.684;2022-08-21T04:58:48;101594.16;;;28.46;71.60
60371;BME280;48550;40.588;49.684;2022-08-21T05:01:18;101595.13;;;29.51;61.54
60371;BME280;48550;40.588;49.684;2022-08-21T05:03:47;101606.03;;;29.68;57.81
60371;BME280;48550;40.588;49.684;2022-08-21T05:06:15;101601.41;;;30.62;54.29
60371;BME280;48550;40.588;49.684;2022-08-21T05:08:44;101607.28;;;30.73;51.02
60371;BME280;48550;40.588;49.684;2022-08-21T05:11:11;101599.56;;;30.66;50.91
60371;BME280;48550;40.588;49.684;2022-08-21T05:13:37;101595.72;;;30.34;51.97
60371;BME280;48550;40.588;49.684;2022-08-21T05:16:03;101596.50;;;30.35;52.05
60371;BME280;48550;40.588;49.684;2022-08-21T05:18:28;101595.16;;;30.53;50.57
60371;BME280;48550;40.588;49.684;2022-08-21T05:20:54;101604.25;;;30.29;51.69
60371;BME280;48550;40.588;49.684;2022-08-21T05:23:20;101604.38;;;30.45;52.13
60371;BME280;48550;40.588;49.684;2022-08-21T05:25:46;101604.97;;;30.51;51.86
60371;BME280;48550;40.588;49.684;2022-08-21T05:28:11;101606.00;;;30.58;50.54
60371;BME280;48550;40.588;49.684;2022-08-21T05:30:38;101613.38;;;30.42;51.72
60371;BME280;48550;40.588;49.684;2022-08-21T05:33:05;101604.38;;;30.33;49.63
60371;BME280;48550;40.588;49.684;2022-08-21T05:35:32;101601.47;;;30.42;50.12
60371;BME280;48550;40.588;49.684;2022-08-21T05:38:00;101610.63;;;30.54;50.48
60371;BME280;48550;40.588;49.684;2022-08-21T05:40:26;101614.06;;;30.39;50.11
60371;BME280;48550;40.588;49.684;2022-08-21T05:42:53;101605.16;;;30.46;50.65
60371;BME280;48550;40.588;49.684;2022-08-21T05:45:20;101608.97;;;30.41;50.78
60371;BME280;48550;40.588;49.684;2022-08-21T05:47:46;101605.91;;;30.79;49.75
60371;BME280;48550;40.588;49.684;2022-08-21T05:50:12;101616.72;;;30.96;48.51
60371;BME280;48550;40.588;49.684;2022-08-21T05:52:38;101613.41;;;30.66;49.90
60371;BME280;48550;40.588;49.684;2022-08-21T05:55:04;101628.75;;;30.88;49.58
60371;BME280;48550;40.588;49.684;2022-08-21T05:57:30;101619.72;;;30.30;51.22
60371;BME280;48550;40.588;49.684;2022-08-21T05:59:56;101616.41;;;30.86;46.59
60371;BME280;48550;40.588;49.684;2022-08-21T06:02:21;101619.66;;;31.40;46.51
60371;BME280;48550;40.588;49.684;2022-08-21T06:04:48;101612.31;;;31.32;46.32
60371;BME280;48550;40.588;49.684;2022-08-21T06:07:14;101611.28;;;31.24;45.92
60371;BME280;48550;40.588;49.684;2022-08-21T06:09:40;101627.31;;;31.99;43.96
60371;BME280;48550;40.588;49.684;2022-08-21T06:12:09;101620.47;;;30.64;49.83
60371;BME280;48550;40.588;49.684;2022-08-21T06:14:37;101617.25;;;31.39;45.39
60371;BME280;48550;40.588;49.684;2022-08-21T06:17:06;101616.19;;;31.43;46.01
60371;BME280;48550;40.588;49.684;2022-08-21T06:19:33;101613.38;;;30.91;47.79
60371;BME280;48550;40.588;49.684;2022-08-21T06:21:59;101621.91;;;31.10;46.15
60371;BME280;48550;40.588;49.684;2022-08-21T06:24:24;101619.25;;;31.54;45.68
60371;BME280;48550;40.588;49.684;2022-08-21T06:26:51;101623.00;;;30.81;48.17
60371;BME280;48550;40.588;49.684;2022-08-21T06:29:17;101625.38;;;30.46;50.48
60371;BME280;48550;40.588;49.684;2022-08-21T06:31:43;101612.00;;;30.85;47.08
60371;BME280;48550;40.588;49.684;2022-08-21T06:34:10;101614.22;;;30.79;49.01
60371;BME280;48550;40.588;49.684;2022-08-21T06:36:36;101609.38;;;30.64;49.31
60371;BME280;48550;40.588;49.684;2022-08-21T06:39:03;101613.56;;;30.13;51.21
60371;BME280;48550;40.588;49.684;2022-08-21T06:41:29;101616.38;;;29.59;55.67
60371;BME280;48550;40.588;49.684;2022-08-21T06:43:55;101612.53;;;30.17;53.39
60371;BME280;48550;40.588;49.684;2022-08-21T06:46:22;101595.66;;;31.20;48.42
60371;BME280;48550;40.588;49.684;2022-08-21T06:48:48;101609.34;;;30.88;48.47
60371;BME280;48550;40.588;49.684;2022-08-21T06:51:13;101605.56;;;30.81;50.19
60371;BME280;48550;40.588;49.684;2022-08-21T06:53:39;101611.31;;;29.94;53.90
60371;BME280;48550;40.588;49.684;2022-08-21T06:56:05;101608.25;;;30.08;52.66
60371;BME280;48550;40.588;49.684;2022-08-21T06:58:31;101610.16;;;29.95;54.93
60371;BME280;48550;40.588;49.684;2022-08-21T07:00:56;101594.81;;;29.85;54.66
60371;BME280;48550;40.588;49.684;2022-08-21T07:03:34;101604.13;;;30.26;52.22
60371;BME280;48550;40.588;49.684;2022-08-21T07:06:01;101600.34;;;29.85;55.02
60371;BME280;48550;40.588;49.684;2022-08-21T07:08:28;101596.75;;;29.52;56.22
60371;BME280;48550;40.588;49.684;2022-08-21T07:10:57;101595.75;;;29.68;56.41
60371;BME280;48550;40.588;49.684;2022-08-21T07:13:23;101604.63;;;29.95;55.05
60371;BME280;48550;40.588;49.684;2022-08-21T07:15:49;101604.84;;;29.15;57.76
60371;BME280;48550;40.588;49.684;2022-08-21T07:18:15;101596.09;;;30.00;54.04
60371;BME280;48550;40.588;49.684;2022-08-21T07:20:41;101593.00;;;29.68;56.64
60371;BME280;48550;40.588;49.684;2022-08-21T07:23:15;101595.38;;;29.91;54.51
60371;BME280;48550;40.588;49.684;2022-08-21T07:25:46;101595.38;;;29.58;55.97
60371;BME280;48550;40.588;49.684;2022-08-21T07:28:12;101591.31;;;30.21;55.84
60371;BME280;48550;40.588;49.684;2022-08-21T07:30:38;101593.63;;;29.32;58.80
60371;BME280;48550;40.588;49.684;2022-08-21T07:33:04;101593.63;;;29.32;58.72
60371;BME280;48550;40.588;49.684;2022-08-21T07:35:29;101591.09;;;29.06;61.20
60371;BME280;48550;40.588;49.684;2022-08-21T07:37:56;101587.28;;;29.32;60.38
60371;BME280;48550;40.588;49.684;2022-08-21T07:40:22;101591.78;;;28.95;62.55
60371;BME280;48550;40.588;49.684;2022-08-21T07:42:49;101584.00;;;28.21;67.00
60371;BME280;48550;40.588;49.684;2022-08-21T07:45:21;101585.78;;;28.16;67.34
60371;BME280;48550;40.588;49.684;2022-08-21T07:47:47;101591.84;;;28.01;66.92
60371;BME280;48550;40.588;49.684;2022-08-21T07:50:14;101585.97;;;28.11;66.70
60371;BME280;48550;40.588;49.684;2022-08-21T07:52:42;101580.34;;;27.99;67.35
60371;BME280;48550;40.588;49.684;2022-08-21T07:55:14;101578.94;;;28.23;66.43
60371;BME280;48550;40.588;49.684;2022-08-21T07:57:40;101591.56;;;27.94;68.09
60371;BME280;48550;40.588;49.684;2022-08-21T08:00:09;101580.63;;;28.06;65.29
60371;BME280;48550;40.588;49.684;2022-08-21T08:02:35;101576.13;;;27.93;68.38
60371;BME280;48550;40.588;49.684;2022-08-21T08:05:03;101573.25;;;27.81;66.31
60371;BME280;48550;40.588;49.684;2022-08-21T08:07:30;101579.59;;;27.56;70.37
60371;BME280;48550;40.588;49.684;2022-08-21T08:09:56;101575.22;;;27.72;70.43
60371;BME280;48550;40.588;49.684;2022-08-21T08:12:21;101579.78;;;27.50;72.84
60371;BME280;48550;40.588;49.684;2022-08-21T08:14:47;101580.44;;;27.65;72.34
60371;BME280;48550;40.588;49.684;2022-08-21T08:17:13;101581.53;;;27.81;71.30
60371;BME280;48550;40.588;49.684;2022-08-21T08:19:39;101574.53;;;27.83;68.85
60371;BME280;48550;40.588;49.684;2022-08-21T08:22:16;101572.28;;;27.42;73.31
60371;BME280;48550;40.588;49.684;2022-08-21T08:24:45;101579.91;;;27.80;69.87
60371;BME280;48550;40.588;49.684;2022-08-21T08:27:12;101572.13;;;27.47;73.10
60371;BME280;48550;40.588;49.684;2022-08-21T08:29:38;101572.28;;;27.77;69.88
60371;BME280;48550;40.588;49.684;2022-08-21T08:32:05;101576.84;;;27.73;69.92
60371;BME280;48550;40.588;49.684;2022-08-21T08:34:33;101569.69;;;27.72;69.93
60371;BME280;48550;40.588;49.684;2022-08-21T08:36:59;101573.28;;;27.72;70.06
60371;BME280;48550;40.588;49.684;2022-08-21T08:39:25;101565.63;;;27.43;71.35
60371;BME280;48550;40.588;49.684;2022-08-21T08:41:58;101556.72;;;27.29;72.30
60371;BME280;48550;40.588;49.684;2022-08-21T08:44:25;101561.44;;;27.37;71.64
60371;BME280;48550;40.588;49.684;2022-08-21T08:46:51;101560.44;;;27.42;71.77
60371;BME280;48550;40.588;49.684;2022-08-21T08:49:40;101561.91;;;27.39;72.83
60371;BME280;48550;40.588;49.684;2022-08-21T08:52:22;101561.59;;;27.32;72.48
60371;BME280;48550;40.588;49.684;2022-08-21T08:55:14;101557.53;;;27.38;73.30
60371;BME280;48550;40.588;49.684;2022-08-21T08:57:43;101555.28;;;27.32;74.41
60371;BME280;48550;40.588;49.684;2022-08-21T09:00:12;101553.81;;;27.17;76.34
60371;BME280;48550;40.588;49.684;2022-08-21T09:02:51;101548.78;;;27.19;76.86
60371;BME280;48550;40.588;49.684;2022-08-21T09:05:55;101541.66;;;27.18;73.68
60371;BME280;48550;40.588;49.684;2022-08-21T09:08:28;101533.69;;;26.90;76.68
60371;BME280;48550;40.588;49.684;2022-08-21T09:13:50;101540.00;;;26.91;75.25
60371;BME280;48550;40.588;49.684;2022-08-21T09:16:59;101529.47;;;26.84;75.07
60371;BME280;48550;40.588;49.684;2022-08-21T09:25:46;101533.63;;;26.73;78.41
60371;BME280;48550;40.588;49.684;2022-08-21T09:27:40;101512.88;;;26.58;79.66
60371;BME280;48550;40.588;49.684;2022-08-21T09:30:07;101525.69;;;26.63;80.10
60371;BME280;48550;40.588;49.684;2022-08-21T09:32:36;101522.09;;;26.45;82.86
60371;BME280;48550;40.588;49.684;2022-08-21T09:35:12;101525.03;;;26.57;79.94
60371;BME280;48550;40.588;49.684;2022-08-21T09:38:06;101513.19;;;26.48;81.79
60371;BME280;48550;40.588;49.684;2022-08-21T09:40:43;101517.88;;;26.48;78.52
60371;BME280;48550;40.588;49.684;2022-08-21T09:45:39;101519.63;;;26.35;80.02
60371;BME280;48550;40.588;49.684;2022-08-21T09:48:22;101521.59;;;26.43;80.44
60371;BME280;48550;40.588;49.684;2022-08-21T09:50:50;101498.78;;;26.43;80.79
60371;BME280;48550;40.588;49.684;2022-08-21T09:53:27;101512.13;;;26.27;82.63
60371;BME280;48550;40.588;49.684;2022-08-21T09:56:03;101513.59;;;26.24;80.02
60371;BME280;48550;40.588;49.684;2022-08-21T09:58:50;101512.91;;;26.19;80.36
60371;BME280;48550;40.588;49.684;2022-08-21T10:01:22;101514.06;;;26.26;82.85
60371;BME280;48550;40.588;49.684;2022-08-21T10:03:49;101518.28;;;26.24;81.20
60371;BME280;48550;40.588;49.684;2022-08-21T10:06:27;101514.22;;;26.21;80.92
60371;BME280;48550;40.588;49.684;2022-08-21T10:09:14;101517.47;;;26.23;81.51
60371;BME280;48550;40.588;49.684;2022-08-21T10:12:10;101510.63;;;26.12;83.12
60371;BME280;48550;40.588;49.684;2022-08-21T10:17:54;101504.19;;;26.17;85.41
60371;BME280;48550;40.588;49.684;2022-08-21T10:28:40;101495.25;;;26.11;88.00
60371;BME280;48550;40.588;49.684;2022-08-21T10:31:18;101503.50;;;26.11;88.55
60371;BME280;48550;40.588;49.684;2022-08-21T10:34:05;101501.72;;;26.07;87.52
60371;BME280;48550;40.588;49.684;2022-08-21T10:39:39;101497.03;;;26.07;89.39
60371;BME280;48550;40.588;49.684;2022-08-21T10:42:21;101490.84;;;26.02;88.82
60371;BME280;48550;40.588;49.684;2022-08-21T10:47:50;101480.25;;;25.86;88.56
60371;BME280;48550;40.588;49.684;2022-08-21T10:50:28;101485.94;;;25.90;89.66
60371;BME280;48550;40.588;49.684;2022-08-21T10:55:36;101486.19;;;25.80;91.15
60371;BME280;48550;40.588;49.684;2022-08-21T10:58:11;101484.09;;;25.77;93.92
60371;BME280;48550;40.588;49.684;2022-08-21T11:00:49;101489.41;;;25.73;92.76
60371;BME280;48550;40.588;49.684;2022-08-21T11:03:52;101477.25;;;25.65;94.31
60371;BME280;48550;40.588;49.684;2022-08-21T11:06:24;101477.41;;;25.69;94.26
60371;BME280;48550;40.588;49.684;2022-08-21T11:08:55;101476.59;;;25.69;90.41
60371;BME280;48550;40.588;49.684;2022-08-21T11:11:32;101481.63;;;25.67;93.96
60371;BME280;48550;40.588;49.684;2022-08-21T11:16:35;101477.66;;;25.59;93.29
60371;BME280;48550;40.588;49.684;2022-08-21T11:19:08;101472.97;;;25.59;92.83
60371;BME280;48550;40.588;49.684;2022-08-21T11:21:45;101481.09;;;25.64;94.36
60371;BME280;48550;40.588;49.684;2022-08-21T11:24:33;101465.03;;;25.58;94.26
60371;BME280;48550;40.588;49.684;2022-08-21T11:27:14;101470.53;;;25.58;96.60
60371;BME280;48550;40.588;49.684;2022-08-21T11:29:50;101486.84;;;25.54;99.28
60371;BME280;48550;40.588;49.684;2022-08-21T11:35:17;101469.06;;;25.52;95.12
60371;BME280;48550;40.588;49.684;2022-08-21T11:45:49;101460.09;;;25.38;96.71
60371;BME280;48550;40.588;49.684;2022-08-21T11:48:44;101467.84;;;25.36;100.00
60371;BME280;48550;40.588;49.684;2022-08-21T11:51:37;101453.97;;;25.41;100.00
60371;BME280;48550;40.588;49.684;2022-08-21T11:54:28;101464.41;;;25.30;99.45
60371;BME280;48550;40.588;49.684;2022-08-21T11:57:06;101477.81;;;25.31;97.93
60371;BME280;48550;40.588;49.684;2022-08-21T12:00:22;101478.63;;;25.32;97.13
60371;BME280;48550;40.588;49.684;2022-08-21T12:02:34;101467.78;;;25.27;95.70
60371;BME280;48550;40.588;49.684;2022-08-21T12:05:06;101460.63;;;25.26;99.15
60371;BME280;48550;40.588;49.684;2022-08-21T12:07:39;101462.28;;;25.27;99.99
60371;BME280;48550;40.588;49.684;2022-08-21T12:10:11;101461.56;;;25.21;96.07
60371;BME280;48550;40.588;49.684;2022-08-21T12:12:41;101476.03;;;25.27;97.92
60371;BME280;48550;40.588;49.684;2022-08-21T12:23:57;101462.28;;;25.27;97.57
60371;BME280;48550;40.588;49.684;2022-08-21T12:26:35;101472.88;;;25.20;99.23
60371;BME280;48550;40.588;49.684;2022-08-21T12:29:11;101457.50;;;25.19;98.53
60371;BME280;48550;40.588;49.684;2022-08-21T12:34:16;101457.75;;;25.09;99.64
60371;BME280;48550;40.588;49.684;2022-08-21T12:36:46;101453.22;;;25.04;97.00
60371;BME280;48550;40.588;49.684;2022-08-21T12:39:20;101455.66;;;25.06;100.00
60371;BME280;48550;40.588;49.684;2022-08-21T12:42:07;101476.31;;;25.03;100.00
60371;BME280;48550;40.588;49.684;2022-08-21T12:44:55;101472.25;;;25.00;100.00
60371;BME280;48550;40.588;49.684;2022-08-21T12:47:34;101450.38;;;24.95;100.00
60371;BME280;48550;40.588;49.684;2022-08-21T12:50:08;101466.03;;;24.95;100.00
60371;BME280;48550;40.588;49.684;2022-08-21T12:53:05;101485.25;;;24.95;100.00
60371;BME280;48550;40.588;49.684;2022-08-21T12:55:32;101461.34;;;24.95;99.72
60371;BME280;48550;40.588;49.684;2022-08-21T12:57:59;101458.00;;;24.98;100.00
60371;BME280;48550;40.588;49.684;2022-08-21T13:00:28;101450.78;;;25.02;96.56
60371;BME280;48550;40.588;49.684;2022-08-21T13:02:55;101456.28;;;25.02;99.01
60371;BME280;48550;40.588;49.684;2022-08-21T13:05:32;101462.88;;;25.01;99.60
60371;BME280;48550;40.588;49.684;2022-08-21T13:07:59;101459.50;;;25.05;99.94
60371;BME280;48550;40.588;49.684;2022-08-21T13:10:30;101455.47;;;25.02;100.00
60371;BME280;48550;40.588;49.684;2022-08-21T13:13:00;101466.53;;;24.97;100.00
60371;BME280;48550;40.588;49.684;2022-08-21T13:15:32;101475.63;;;24.97;100.00
60371;BME280;48550;40.588;49.684;2022-08-21T13:18:00;101461.03;;;24.97;100.00
60371;BME280;48550;40.588;49.684;2022-08-21T13:20:35;101460.84;;;24.93;100.00
60371;BME280;48550;40.588;49.684;2022-08-21T13:23:07;101457.59;;;24.91;100.00
60371;BME280;48550;40.588;49.684;2022-08-21T13:25:41;101462.72;;;24.84;100.00
60371;BME280;48550;40.588;49.684;2022-08-21T13:28:09;101464.84;;;24.87;100.00
60371;BME280;48550;40.588;49.684;2022-08-21T13:30:43;101454.91;;;24.78;100.00
60371;BME280;48550;40.588;49.684;2022-08-21T13:33:09;101443.63;;;24.79;100.00
60371;BME280;48550;40.588;49.684;2022-08-21T13:38:25;101455.34;;;24.71;100.00
60371;BME280;48550;40.588;49.684;2022-08-21T13:40:55;101450.34;;;24.73;100.00
60371;BME280;48550;40.588;49.684;2022-08-21T13:43:30;101443.84;;;24.69;100.00
60371;BME280;48550;40.588;49.684;2022-08-21T13:45:57;101439.72;;;24.58;100.00
60371;BME280;48550;40.588;49.684;2022-08-21T13:48:26;101436.97;;;24.58;100.00
60371;BME280;48550;40.588;49.684;2022-08-21T13:50:54;101450.81;;;24.53;100.00
60371;BME280;48550;40.588;49.684;2022-08-21T13:53:30;101446.66;;;24.55;100.00